Deva — A8OK3 — position and weather

sailwx.info

Track history (hours):
 
Tides and Currents Weather Stations Pressure Air Temp Water Temp Dewpoint Dewpoint Depression Visibility Wind Speed Wind Dir Waves Ship Positions

Deva

Last reported at 2015-Aug-28 22:21 UTC. Time now 2015-Aug-31 10:56 UTC.
Position N 35°53' E 120°56'.

Length 259 m; draft 9.9 m.

Type: Ship (hazmat cat A). MMSI: 636013644.

Date/timePositionNaut miles runAvg speedWind from/ knotsBaromVisibWave heightAir tempDewpointWater temp
2015-Aug-28 22:21N 35°53' E 120°56'0 0.1
2015-Aug-28 21:33N 35°53' E 120°56'0 0.0
2015-Aug-28 20:33N 35°53' E 120°56'20 8.1
2015-Aug-28 18:05N 36°03' E 121°17'813.2
2015-Aug-28 17:29N 36°07' E 121°26'3913.0
2015-Aug-28 14:29N 36°26' E 122°08'1312.9
2015-Aug-28 13:29N 36°33' E 122°22'1212.4
2015-Aug-28 12:33N 36°39' E 122°34'1212.0
2015-Aug-28 11:33N 36°45' E 122°47'1111.5
2015-Aug-28 10:33N 36°52' E 122°58'1111.4
2015-Aug-28 09:33N 37°03' E 122°58'1111.0
2015-Aug-28 08:33N 37°15' E 122°58'1111.2
2015-Aug-28 07:33N 37°26' E 122°57'2211.1
2015-Aug-28 05:33N 37°46' E 122°45'1312.6
2015-Aug-28 04:33N 37°57' E 122°37'5412.2
2015-Aug-28 00:10N 38°44' E 122°04'812.0
2015-Aug-27 23:28N 38°51' E 121°59'5 0.4
2015-Aug-27 10:30N 38°56' E 121°56'9 9.1
2015-Aug-27 09:33N 38°48' E 121°51'1716.6
2015-Aug-27 08:33N 38°32' E 121°44'1716.9
2015-Aug-27 07:33N 38°28' E 121°23'15715.1
2015-Aug-26 21:09N 38°55' E 118°05'610.5
2015-Aug-26 20:33N 38°57' E 117°58'9 9.0
2015-Aug-26 19:31N 38°59' E 117°46'0 0.0
2015-Aug-26 18:31N 38°59' E 117°46'0 0.0
2015-Aug-26 17:25N 38°59' E 117°46'0 0.0
2015-Aug-26 16:31N 38°59' E 117°46'0 0.0
2015-Aug-26 15:25N 38°59' E 117°46'0 0.0
2015-Aug-26 14:31N 38°59' E 117°46'0 0.0
2015-Aug-26 13:31N 38°59' E 117°46'0 0.0
2015-Aug-26 12:31N 38°59' E 117°46'0 0.0
2015-Aug-26 11:07N 38°59' E 117°46'0 0.0
2015-Aug-26 10:31N 38°59' E 117°46'0 0.0
2015-Aug-26 09:25N 38°59' E 117°46'0 0.0
2015-Aug-26 08:13N 38°59' E 117°46'0 0.0
2015-Aug-26 07:25N 38°59' E 117°46'0 0.0
2015-Aug-26 06:19N 38°59' E 117°46'0 0.0
2015-Aug-26 05:31N 38°59' E 117°46'0 0.0
2015-Aug-26 04:32N 38°59' E 117°46'6 5.8
2015-Aug-26 03:33N 38°57' E 117°53'16517.6
2015-Aug-25 18:10N 38°26' E 121°20'5420.4
2015-Aug-25 15:31N 37°58' E 122°20'2120.0
2015-Aug-25 14:28N 37°48' E 122°42'3417.9
2015-Aug-25 12:33N 37°17' E 123°03'1918.8
2015-Aug-25 11:33N 36°59' E 123°05'1919.2
2015-Aug-25 10:34N 36°40' E 123°06'71117.2
2015-Aug-23 17:07N 25°08' E 119°54'1312.8
2015-Aug-23 16:05N 24°59' E 119°43'2412.9
2015-Aug-23 14:15N 24°44' E 119°23'912.4
2015-Aug-23 13:33N 24°38' E 119°16'1211.9
2015-Aug-23 12:33N 24°29' E 119°07'2812.8
2015-Aug-23 10:21N 24°10' E 118°45'1517.6
2015-Aug-23 09:30N 24°01' E 118°32'1313.2
2015-Aug-23 08:32N 23°52' E 118°22'6913.5
2015-Aug-23 03:27N 23°06' E 117°26'1716.2
2015-Aug-23 02:24N 22°57' E 117°11'15016.7
2015-Aug-22 17:26N 22°08' E 114°37'1517.4
2015-Aug-22 16:33N 22°08' E 114°21'1110.6
2015-Aug-22 15:33N 22°12' E 114°10'8 7.9
2015-Aug-22 14:34N 22°20' E 114°07'1 1.0
2015-Aug-22 13:31N 22°20' E 114°08'0 0.0
2015-Aug-22 12:28N 22°20' E 114°08'0 0.0
2015-Aug-22 11:31N 22°20' E 114°08'0 0.0
2015-Aug-22 10:28N 22°20' E 114°08'0 0.0
2015-Aug-22 09:31N 22°20' E 114°08'0 0.0
2015-Aug-22 08:28N 22°20' E 114°08'0 0.0
2015-Aug-22 07:31N 22°20' E 114°08'0 0.0
2015-Aug-22 06:28N 22°20' E 114°08'0 0.0
2015-Aug-22 05:31N 22°20' E 114°08'2 2.1
2015-Aug-22 04:33N 22°19' E 114°06'1210.7
2015-Aug-22 03:25N 22°09' E 114°14'1112.5
2015-Aug-22 02:33N 22°02' E 114°23'  
Track history (hours):
 
Tides and Currents Weather Stations Pressure Air Temp Water Temp Dewpoint Dewpoint Depression Visibility Wind Speed Wind Dir Waves Ship Positions

Deva

Last reported at 2015-Aug-28 22:21 UTC. Time now 2015-Aug-31 10:56 UTC.
Position N 35°53' E 120°56'.

Length 259 m; draft 9.9 m.

Type: Ship (hazmat cat A). MMSI: 636013644.

Date/timePositionNaut miles runAvg speedWind from/ knotsBaromVisibWave heightAir tempDewpointWater temp
2015-Aug-28 22:21N 35°53' E 120°56'0 0.1
2015-Aug-28 21:33N 35°53' E 120°56'0 0.0
2015-Aug-28 20:33N 35°53' E 120°56'20 8.1
2015-Aug-28 18:05N 36°03' E 121°17'813.2
2015-Aug-28 17:29N 36°07' E 121°26'3913.0
2015-Aug-28 14:29N 36°26' E 122°08'1312.9
2015-Aug-28 13:29N 36°33' E 122°22'1212.4
2015-Aug-28 12:33N 36°39' E 122°34'1212.0
2015-Aug-28 11:33N 36°45' E 122°47'1111.5
2015-Aug-28 10:33N 36°52' E 122°58'1111.4
2015-Aug-28 09:33N 37°03' E 122°58'1111.0
2015-Aug-28 08:33N 37°15' E 122°58'1111.2
2015-Aug-28 07:33N 37°26' E 122°57'2211.1
2015-Aug-28 05:33N 37°46' E 122°45'1312.6
2015-Aug-28 04:33N 37°57' E 122°37'5412.2
2015-Aug-28 00:10N 38°44' E 122°04'812.0
2015-Aug-27 23:28N 38°51' E 121°59'5 0.4
2015-Aug-27 10:30N 38°56' E 121°56'9 9.1
2015-Aug-27 09:33N 38°48' E 121°51'1716.6
2015-Aug-27 08:33N 38°32' E 121°44'1716.9
2015-Aug-27 07:33N 38°28' E 121°23'15715.1
2015-Aug-26 21:09N 38°55' E 118°05'610.5
2015-Aug-26 20:33N 38°57' E 117°58'9 9.0
2015-Aug-26 19:31N 38°59' E 117°46'0 0.0
2015-Aug-26 18:31N 38°59' E 117°46'0 0.0
2015-Aug-26 17:25N 38°59' E 117°46'0 0.0
2015-Aug-26 16:31N 38°59' E 117°46'0 0.0
2015-Aug-26 15:25N 38°59' E 117°46'0 0.0
2015-Aug-26 14:31N 38°59' E 117°46'0 0.0
2015-Aug-26 13:31N 38°59' E 117°46'0 0.0
2015-Aug-26 12:31N 38°59' E 117°46'0 0.0
2015-Aug-26 11:07N 38°59' E 117°46'0 0.0
2015-Aug-26 10:31N 38°59' E 117°46'0 0.0
2015-Aug-26 09:25N 38°59' E 117°46'0 0.0
2015-Aug-26 08:13N 38°59' E 117°46'0 0.0
2015-Aug-26 07:25N 38°59' E 117°46'0 0.0
2015-Aug-26 06:19N 38°59' E 117°46'0 0.0
2015-Aug-26 05:31N 38°59' E 117°46'0 0.0
2015-Aug-26 04:32N 38°59' E 117°46'6 5.8
2015-Aug-26 03:33N 38°57' E 117°53'16517.6
2015-Aug-25 18:10N 38°26' E 121°20'5420.4
2015-Aug-25 15:31N 37°58' E 122°20'2120.0
2015-Aug-25 14:28N 37°48' E 122°42'3417.9
2015-Aug-25 12:33N 37°17' E 123°03'1918.8
2015-Aug-25 11:33N 36°59' E 123°05'1919.2
2015-Aug-25 10:34N 36°40' E 123°06'71117.2
2015-Aug-23 17:07N 25°08' E 119°54'1312.8
2015-Aug-23 16:05N 24°59' E 119°43'2412.9
2015-Aug-23 14:15N 24°44' E 119°23'912.4
2015-Aug-23 13:33N 24°38' E 119°16'1211.9
2015-Aug-23 12:33N 24°29' E 119°07'2812.8
2015-Aug-23 10:21N 24°10' E 118°45'1517.6
2015-Aug-23 09:30N 24°01' E 118°32'1313.2
2015-Aug-23 08:32N 23°52' E 118°22'6913.5
2015-Aug-23 03:27N 23°06' E 117°26'1716.2
2015-Aug-23 02:24N 22°57' E 117°11'15016.7
2015-Aug-22 17:26N 22°08' E 114°37'1517.4
2015-Aug-22 16:33N 22°08' E 114°21'1110.6
2015-Aug-22 15:33N 22°12' E 114°10'8 7.9
2015-Aug-22 14:34N 22°20' E 114°07'1 1.0
2015-Aug-22 13:31N 22°20' E 114°08'0 0.0
2015-Aug-22 12:28N 22°20' E 114°08'0 0.0
2015-Aug-22 11:31N 22°20' E 114°08'0 0.0
2015-Aug-22 10:28N 22°20' E 114°08'0 0.0
2015-Aug-22 09:31N 22°20' E 114°08'0 0.0
2015-Aug-22 08:28N 22°20' E 114°08'0 0.0
2015-Aug-22 07:31N 22°20' E 114°08'0 0.0
2015-Aug-22 06:28N 22°20' E 114°08'0 0.0
2015-Aug-22 05:31N 22°20' E 114°08'2 2.1
2015-Aug-22 04:33N 22°19' E 114°06'1210.7
2015-Aug-22 03:25N 22°09' E 114°14'1112.5
2015-Aug-22 02:33N 22°02' E 114°23'  

Dump ship's entire track history